sensor_id;sensor_type;location;lat;lon;timestamp;P1;durP1;ratioP1;P2;durP2;ratioP2
21876;SDS011;11103;43.788;23.710;2023-03-04T00:01:42;36.10;;;22.13;;
21876;SDS011;11103;43.788;23.710;2023-03-04T00:04:08;38.00;;;22.70;;
21876;SDS011;11103;43.788;23.710;2023-03-04T00:06:33;38.93;;;22.57;;
21876;SDS011;11103;43.788;23.710;2023-03-04T00:08:59;36.00;;;22.27;;
21876;SDS011;11103;43.788;23.710;2023-03-04T00:11:25;36.50;;;22.53;;
21876;SDS011;11103;43.788;23.710;2023-03-04T00:13:50;38.57;;;22.30;;
21876;SDS011;11103;43.788;23.710;2023-03-04T00:16:16;35.60;;;22.00;;
21876;SDS011;11103;43.788;23.710;2023-03-04T00:18:41;41.07;;;25.57;;
21876;SDS011;11103;43.788;23.710;2023-03-04T00:21:07;34.23;;;21.13;;
21876;SDS011;11103;43.788;23.710;2023-03-04T00:23:32;35.87;;;22.60;;
21876;SDS011;11103;43.788;23.710;2023-03-04T00:25:58;34.03;;;21.27;;
21876;SDS011;11103;43.788;23.710;2023-03-04T00:28:23;33.60;;;22.43;;
21876;SDS011;11103;43.788;23.710;2023-03-04T00:30:48;33.97;;;21.70;;
21876;SDS011;11103;43.788;23.710;2023-03-04T00:33:14;34.90;;;23.77;;
21876;SDS011;11103;43.788;23.710;2023-03-04T00:35:39;33.20;;;21.87;;
21876;SDS011;11103;43.788;23.710;2023-03-04T00:38:05;39.67;;;25.00;;
21876;SDS011;11103;43.788;23.710;2023-03-04T00:40:30;40.50;;;24.47;;
21876;SDS011;11103;43.788;23.710;2023-03-04T00:42:56;37.83;;;25.33;;
21876;SDS011;11103;43.788;23.710;2023-03-04T00:45:21;41.97;;;23.27;;
21876;SDS011;11103;43.788;23.710;2023-03-04T00:47:47;37.77;;;24.37;;
21876;SDS011;11103;43.788;23.710;2023-03-04T00:50:12;38.33;;;24.73;;
21876;SDS011;11103;43.788;23.710;2023-03-04T00:52:37;41.33;;;26.10;;
21876;SDS011;11103;43.788;23.710;2023-03-04T00:55:03;40.77;;;26.20;;
21876;SDS011;11103;43.788;23.710;2023-03-04T00:57:29;43.13;;;26.77;;
21876;SDS011;11103;43.788;23.710;2023-03-04T00:59:54;43.10;;;25.97;;
21876;SDS011;11103;43.788;23.710;2023-03-04T01:02:20;43.33;;;25.93;;
21876;SDS011;11103;43.788;23.710;2023-03-04T01:04:45;42.10;;;25.33;;
21876;SDS011;11103;43.788;23.710;2023-03-04T01:07:11;49.57;;;29.20;;
21876;SDS011;11103;43.788;23.710;2023-03-04T01:09:36;51.47;;;31.17;;
21876;SDS011;11103;43.788;23.710;2023-03-04T01:12:02;58.97;;;32.27;;
21876;SDS011;11103;43.788;23.710;2023-03-04T01:14:27;48.70;;;30.23;;
21876;SDS011;11103;43.788;23.710;2023-03-04T01:16:53;61.80;;;35.77;;
21876;SDS011;11103;43.788;23.710;2023-03-04T01:19:18;173.43;;;82.27;;
21876;SDS011;11103;43.788;23.710;2023-03-04T01:21:44;82.33;;;43.03;;
21876;SDS011;11103;43.788;23.710;2023-03-04T01:24:09;58.43;;;33.30;;
21876;SDS011;11103;43.788;23.710;2023-03-04T01:26:35;47.73;;;28.27;;
21876;SDS011;11103;43.788;23.710;2023-03-04T01:29:01;77.63;;;44.43;;
21876;SDS011;11103;43.788;23.710;2023-03-04T01:31:26;88.73;;;44.77;;
21876;SDS011;11103;43.788;23.710;2023-03-04T01:33:52;182.93;;;88.80;;
21876;SDS011;11103;43.788;23.710;2023-03-04T01:36:17;136.13;;;64.97;;
21876;SDS011;11103;43.788;23.710;2023-03-04T01:38:43;45.10;;;29.30;;
21876;SDS011;11103;43.788;23.710;2023-03-04T01:41:08;56.60;;;32.20;;
21876;SDS011;11103;43.788;23.710;2023-03-04T01:43:36;74.07;;;41.43;;
21876;SDS011;11103;43.788;23.710;2023-03-04T01:46:02;44.47;;;27.07;;
21876;SDS011;11103;43.788;23.710;2023-03-04T01:48:31;45.87;;;27.50;;
21876;SDS011;11103;43.788;23.710;2023-03-04T01:51:01;41.27;;;26.03;;
21876;SDS011;11103;43.788;23.710;2023-03-04T01:53:28;33.43;;;21.53;;
21876;SDS011;11103;43.788;23.710;2023-03-04T01:55:55;36.10;;;21.37;;
21876;SDS011;11103;43.788;23.710;2023-03-04T01:58:25;33.60;;;20.50;;
21876;SDS011;11103;43.788;23.710;2023-03-04T02:00:54;33.77;;;21.17;;
21876;SDS011;11103;43.788;23.710;2023-03-04T02:03:19;33.13;;;21.07;;
21876;SDS011;11103;43.788;23.710;2023-03-04T02:05:46;30.13;;;19.73;;
21876;SDS011;11103;43.788;23.710;2023-03-04T02:08:14;36.63;;;22.37;;
21876;SDS011;11103;43.788;23.710;2023-03-04T02:10:42;39.40;;;23.10;;
21876;SDS011;11103;43.788;23.710;2023-03-04T02:13:09;33.63;;;21.27;;
21876;SDS011;11103;43.788;23.710;2023-03-04T02:15:35;31.13;;;20.43;;
21876;SDS011;11103;43.788;23.710;2023-03-04T02:18:01;35.03;;;21.30;;
21876;SDS011;11103;43.788;23.710;2023-03-04T02:23:08;30.93;;;19.50;;
21876;SDS011;11103;43.788;23.710;2023-03-04T02:25:48;26.77;;;18.33;;
21876;SDS011;11103;43.788;23.710;2023-03-04T02:28:19;28.87;;;17.33;;
21876;SDS011;11103;43.788;23.710;2023-03-04T02:30:44;28.57;;;18.53;;
21876;SDS011;11103;43.788;23.710;2023-03-04T02:33:15;29.27;;;18.10;;
21876;SDS011;11103;43.788;23.710;2023-03-04T02:35:42;31.03;;;18.83;;
21876;SDS011;11103;43.788;23.710;2023-03-04T02:38:09;32.23;;;19.00;;
21876;SDS011;11103;43.788;23.710;2023-03-04T02:40:35;24.37;;;16.67;;
21876;SDS011;11103;43.788;23.710;2023-03-04T02:43:03;34.37;;;18.47;;
21876;SDS011;11103;43.788;23.710;2023-03-04T02:45:42;33.10;;;19.83;;
21876;SDS011;11103;43.788;23.710;2023-03-04T02:48:12;28.87;;;18.70;;
21876;SDS011;11103;43.788;23.710;2023-03-04T02:50:44;32.27;;;19.73;;
21876;SDS011;11103;43.788;23.710;2023-03-04T02:53:15;29.47;;;18.60;;
21876;SDS011;11103;43.788;23.710;2023-03-04T02:55:41;32.77;;;19.10;;
21876;SDS011;11103;43.788;23.710;2023-03-04T02:58:07;30.40;;;19.30;;
21876;SDS011;11103;43.788;23.710;2023-03-04T03:00:34;37.90;;;23.80;;
21876;SDS011;11103;43.788;23.710;2023-03-04T03:02:59;39.77;;;23.10;;
21876;SDS011;11103;43.788;23.710;2023-03-04T03:05:25;36.27;;;20.60;;
21876;SDS011;11103;43.788;23.710;2023-03-04T03:07:53;35.30;;;21.40;;
21876;SDS011;11103;43.788;23.710;2023-03-04T03:10:19;36.97;;;20.53;;
21876;SDS011;11103;43.788;23.710;2023-03-04T03:12:45;36.33;;;21.90;;
21876;SDS011;11103;43.788;23.710;2023-03-04T03:15:11;32.10;;;19.60;;
21876;SDS011;11103;43.788;23.710;2023-03-04T03:17:36;30.30;;;18.27;;
21876;SDS011;11103;43.788;23.710;2023-03-04T03:20:02;34.93;;;19.10;;
21876;SDS011;11103;43.788;23.710;2023-03-04T03:22:28;28.90;;;18.40;;
21876;SDS011;11103;43.788;23.710;2023-03-04T03:24:53;29.70;;;17.67;;
21876;SDS011;11103;43.788;23.710;2023-03-04T03:27:19;28.63;;;17.47;;
21876;SDS011;11103;43.788;23.710;2023-03-04T03:29:44;32.67;;;17.67;;
21876;SDS011;11103;43.788;23.710;2023-03-04T03:32:10;98.87;;;35.33;;
21876;SDS011;11103;43.788;23.710;2023-03-04T03:34:35;424.27;;;121.43;;
21876;SDS011;11103;43.788;23.710;2023-03-04T03:37:00;363.27;;;106.07;;
21876;SDS011;11103;43.788;23.710;2023-03-04T03:39:26;211.67;;;64.33;;
21876;SDS011;11103;43.788;23.710;2023-03-04T03:41:51;53.43;;;26.70;;
21876;SDS011;11103;43.788;23.710;2023-03-04T03:44:17;41.33;;;21.77;;
21876;SDS011;11103;43.788;23.710;2023-03-04T03:46:42;41.17;;;19.57;;
21876;SDS011;11103;43.788;23.710;2023-03-04T03:49:07;40.50;;;22.77;;
21876;SDS011;11103;43.788;23.710;2023-03-04T03:51:33;64.27;;;31.73;;
21876;SDS011;11103;43.788;23.710;2023-03-04T03:53:58;48.03;;;25.40;;
21876;SDS011;11103;43.788;23.710;2023-03-04T03:56:23;42.73;;;24.13;;
21876;SDS011;11103;43.788;23.710;2023-03-04T03:58:49;30.00;;;16.87;;
21876;SDS011;11103;43.788;23.710;2023-03-04T04:01:14;30.40;;;17.03;;
21876;SDS011;11103;43.788;23.710;2023-03-04T04:03:40;29.03;;;16.33;;
21876;SDS011;11103;43.788;23.710;2023-03-04T04:06:05;27.40;;;16.73;;
21876;SDS011;11103;43.788;23.710;2023-03-04T04:08:31;28.93;;;17.27;;
21876;SDS011;11103;43.788;23.710;2023-03-04T04:10:57;28.23;;;16.63;;
21876;SDS011;11103;43.788;23.710;2023-03-04T04:13:22;30.37;;;16.97;;
21876;SDS011;11103;43.788;23.710;2023-03-04T04:15:52;25.43;;;15.57;;
21876;SDS011;11103;43.788;23.710;2023-03-04T04:18:18;25.53;;;16.43;;
21876;SDS011;11103;43.788;23.710;2023-03-04T04:20:43;26.30;;;15.83;;
21876;SDS011;11103;43.788;23.710;2023-03-04T04:23:09;26.97;;;16.47;;
21876;SDS011;11103;43.788;23.710;2023-03-04T04:25:35;24.33;;;15.47;;
21876;SDS011;11103;43.788;23.710;2023-03-04T04:28:01;27.07;;;15.17;;
21876;SDS011;11103;43.788;23.710;2023-03-04T04:30:26;28.07;;;16.37;;
21876;SDS011;11103;43.788;23.710;2023-03-04T04:32:51;28.23;;;16.63;;
21876;SDS011;11103;43.788;23.710;2023-03-04T04:35:17;29.50;;;17.00;;
21876;SDS011;11103;43.788;23.710;2023-03-04T04:37:42;29.87;;;16.20;;
21876;SDS011;11103;43.788;23.710;2023-03-04T04:40:08;30.23;;;16.57;;
21876;SDS011;11103;43.788;23.710;2023-03-04T04:42:34;28.40;;;15.77;;
21876;SDS011;11103;43.788;23.710;2023-03-04T04:44:59;31.50;;;16.77;;
21876;SDS011;11103;43.788;23.710;2023-03-04T04:47:25;29.73;;;16.03;;
21876;SDS011;11103;43.788;23.710;2023-03-04T04:49:50;25.57;;;15.73;;
21876;SDS011;11103;43.788;23.710;2023-03-04T04:52:16;24.80;;;14.27;;
21876;SDS011;11103;43.788;23.710;2023-03-04T04:54:42;25.57;;;15.93;;
21876;SDS011;11103;43.788;23.710;2023-03-04T04:57:08;27.87;;;14.90;;
21876;SDS011;11103;43.788;23.710;2023-03-04T04:59:33;25.87;;;13.73;;
21876;SDS011;11103;43.788;23.710;2023-03-04T05:01:59;23.37;;;13.87;;
21876;SDS011;11103;43.788;23.710;2023-03-04T05:04:24;29.13;;;14.90;;
21876;SDS011;11103;43.788;23.710;2023-03-04T05:06:50;23.70;;;14.87;;
21876;SDS011;11103;43.788;23.710;2023-03-04T05:09:15;24.67;;;14.73;;
21876;SDS011;11103;43.788;23.710;2023-03-04T05:11:40;29.80;;;14.83;;
21876;SDS011;11103;43.788;23.710;2023-03-04T05:14:06;25.93;;;14.57;;
21876;SDS011;11103;43.788;23.710;2023-03-04T05:16:31;23.03;;;13.63;;
21876;SDS011;11103;43.788;23.710;2023-03-04T05:18:57;24.47;;;14.27;;
21876;SDS011;11103;43.788;23.710;2023-03-04T05:21:22;27.23;;;14.50;;
21876;SDS011;11103;43.788;23.710;2023-03-04T05:23:48;23.57;;;13.03;;
21876;SDS011;11103;43.788;23.710;2023-03-04T05:26:14;26.57;;;14.47;;
21876;SDS011;11103;43.788;23.710;2023-03-04T05:28:40;24.70;;;13.90;;
21876;SDS011;11103;43.788;23.710;2023-03-04T05:31:06;28.20;;;15.53;;
21876;SDS011;11103;43.788;23.710;2023-03-04T05:33:31;29.70;;;18.67;;
21876;SDS011;11103;43.788;23.710;2023-03-04T05:35:57;29.20;;;18.13;;
21876;SDS011;11103;43.788;23.710;2023-03-04T05:38:23;31.00;;;17.77;;
21876;SDS011;11103;43.788;23.710;2023-03-04T05:40:54;25.83;;;16.03;;
21876;SDS011;11103;43.788;23.710;2023-03-04T05:43:21;27.20;;;13.93;;
21876;SDS011;11103;43.788;23.710;2023-03-04T05:45:48;20.87;;;12.90;;
21876;SDS011;11103;43.788;23.710;2023-03-04T05:48:13;23.00;;;12.60;;
21876;SDS011;11103;43.788;23.710;2023-03-04T05:50:39;41.70;;;19.33;;
21876;SDS011;11103;43.788;23.710;2023-03-04T05:53:04;74.17;;;31.60;;
21876;SDS011;11103;43.788;23.710;2023-03-04T05:55:30;67.57;;;26.80;;
21876;SDS011;11103;43.788;23.710;2023-03-04T05:57:55;55.20;;;23.57;;
21876;SDS011;11103;43.788;23.710;2023-03-04T06:00:21;42.07;;;18.90;;
21876;SDS011;11103;43.788;23.710;2023-03-04T06:02:47;48.47;;;22.37;;
21876;SDS011;11103;43.788;23.710;2023-03-04T06:05:13;135.30;;;51.13;;
21876;SDS011;11103;43.788;23.710;2023-03-04T06:07:39;144.93;;;48.10;;
21876;SDS011;11103;43.788;23.710;2023-03-04T06:10:07;86.97;;;35.37;;
21876;SDS011;11103;43.788;23.710;2023-03-04T06:12:33;61.50;;;27.30;;
21876;SDS011;11103;43.788;23.710;2023-03-04T06:14:59;45.63;;;22.33;;
21876;SDS011;11103;43.788;23.710;2023-03-04T06:17:24;35.50;;;17.80;;
21876;SDS011;11103;43.788;23.710;2023-03-04T06:19:49;31.23;;;15.43;;
21876;SDS011;11103;43.788;23.710;2023-03-04T06:22:15;22.03;;;12.07;;
21876;SDS011;11103;43.788;23.710;2023-03-04T06:24:40;22.10;;;12.47;;
21876;SDS011;11103;43.788;23.710;2023-03-04T06:27:05;16.87;;;11.80;;
21876;SDS011;11103;43.788;23.710;2023-03-04T06:29:31;15.70;;;10.20;;
21876;SDS011;11103;43.788;23.710;2023-03-04T06:31:57;15.63;;;11.90;;
21876;SDS011;11103;43.788;23.710;2023-03-04T06:34:22;15.33;;;11.07;;
21876;SDS011;11103;43.788;23.710;2023-03-04T06:36:48;17.90;;;11.83;;
21876;SDS011;11103;43.788;23.710;2023-03-04T06:39:13;21.03;;;17.10;;
21876;SDS011;11103;43.788;23.710;2023-03-04T06:41:39;21.20;;;14.90;;
21876;SDS011;11103;43.788;23.710;2023-03-04T06:44:04;23.20;;;14.20;;
21876;SDS011;11103;43.788;23.710;2023-03-04T06:46:29;23.50;;;17.30;;
21876;SDS011;11103;43.788;23.710;2023-03-04T06:48:57;25.13;;;14.83;;
21876;SDS011;11103;43.788;23.710;2023-03-04T06:51:23;23.97;;;16.53;;
21876;SDS011;11103;43.788;23.710;2023-03-04T06:53:48;24.03;;;15.67;;
21876;SDS011;11103;43.788;23.710;2023-03-04T06:56:14;19.27;;;13.87;;
21876;SDS011;11103;43.788;23.710;2023-03-04T06:58:42;23.97;;;16.00;;
21876;SDS011;11103;43.788;23.710;2023-03-04T07:01:27;25.77;;;17.53;;
21876;SDS011;11103;43.788;23.710;2023-03-04T07:03:54;22.90;;;15.33;;
21876;SDS011;11103;43.788;23.710;2023-03-04T07:06:22;23.23;;;14.87;;
21876;SDS011;11103;43.788;23.710;2023-03-04T07:08:49;32.20;;;19.67;;
21876;SDS011;11103;43.788;23.710;2023-03-04T07:11:15;26.93;;;18.97;;
21876;SDS011;11103;43.788;23.710;2023-03-04T07:13:40;26.40;;;16.93;;
21876;SDS011;11103;43.788;23.710;2023-03-04T07:16:07;32.77;;;21.87;;
21876;SDS011;11103;43.788;23.710;2023-03-04T07:18:35;31.83;;;19.13;;
21876;SDS011;11103;43.788;23.710;2023-03-04T07:21:01;35.00;;;22.70;;
21876;SDS011;11103;43.788;23.710;2023-03-04T07:23:27;29.13;;;18.63;;
21876;SDS011;11103;43.788;23.710;2023-03-04T07:25:52;33.23;;;20.20;;
21876;SDS011;11103;43.788;23.710;2023-03-04T07:28:18;38.80;;;23.83;;
21876;SDS011;11103;43.788;23.710;2023-03-04T07:30:44;44.07;;;28.63;;
21876;SDS011;11103;43.788;23.710;2023-03-04T07:33:10;62.30;;;36.23;;
21876;SDS011;11103;43.788;23.710;2023-03-04T07:35:36;44.57;;;24.20;;
21876;SDS011;11103;43.788;23.710;2023-03-04T07:38:01;37.13;;;22.70;;
21876;SDS011;11103;43.788;23.710;2023-03-04T07:40:27;37.23;;;21.43;;
21876;SDS011;11103;43.788;23.710;2023-03-04T07:42:53;34.13;;;19.93;;
21876;SDS011;11103;43.788;23.710;2023-03-04T07:45:19;36.17;;;20.90;;
21876;SDS011;11103;43.788;23.710;2023-03-04T07:47:45;34.43;;;21.07;;
21876;SDS011;11103;43.788;23.710;2023-03-04T07:50:11;37.10;;;21.03;;
21876;SDS011;11103;43.788;23.710;2023-03-04T07:52:38;39.30;;;21.43;;
21876;SDS011;11103;43.788;23.710;2023-03-04T07:55:05;34.87;;;21.13;;
21876;SDS011;11103;43.788;23.710;2023-03-04T07:57:31;36.57;;;20.60;;
21876;SDS011;11103;43.788;23.710;2023-03-04T07:59:56;34.40;;;20.50;;
21876;SDS011;11103;43.788;23.710;2023-03-04T08:02:21;36.57;;;21.17;;
21876;SDS011;11103;43.788;23.710;2023-03-04T08:04:47;37.80;;;21.30;;
21876;SDS011;11103;43.788;23.710;2023-03-04T08:07:12;34.43;;;19.60;;
21876;SDS011;11103;43.788;23.710;2023-03-04T08:09:38;37.23;;;21.80;;
21876;SDS011;11103;43.788;23.710;2023-03-04T08:12:03;36.63;;;22.30;;
21876;SDS011;11103;43.788;23.710;2023-03-04T08:14:28;35.63;;;20.80;;
21876;SDS011;11103;43.788;23.710;2023-03-04T08:16:54;41.80;;;23.90;;
21876;SDS011;11103;43.788;23.710;2023-03-04T08:19:19;33.50;;;19.93;;
21876;SDS011;11103;43.788;23.710;2023-03-04T08:21:45;36.67;;;19.83;;
21876;SDS011;11103;43.788;23.710;2023-03-04T08:24:10;35.50;;;21.33;;
21876;SDS011;11103;43.788;23.710;2023-03-04T08:26:37;35.83;;;20.77;;
21876;SDS011;11103;43.788;23.710;2023-03-04T08:29:06;35.77;;;19.90;;
21876;SDS011;11103;43.788;23.710;2023-03-04T08:31:32;32.13;;;19.03;;
21876;SDS011;11103;43.788;23.710;2023-03-04T08:33:58;37.60;;;20.67;;
21876;SDS011;11103;43.788;23.710;2023-03-04T08:36:24;38.23;;;19.73;;
21876;SDS011;11103;43.788;23.710;2023-03-04T08:38:50;36.50;;;19.90;;
21876;SDS011;11103;43.788;23.710;2023-03-04T08:41:15;43.20;;;24.70;;
21876;SDS011;11103;43.788;23.710;2023-03-04T08:43:41;37.77;;;23.50;;
21876;SDS011;11103;43.788;23.710;2023-03-04T08:46:06;38.50;;;21.13;;
21876;SDS011;11103;43.788;23.710;2023-03-04T08:48:32;35.30;;;21.57;;
21876;SDS011;11103;43.788;23.710;2023-03-04T08:50:58;35.33;;;20.70;;
21876;SDS011;11103;43.788;23.710;2023-03-04T08:53:24;40.67;;;18.63;;
21876;SDS011;11103;43.788;23.710;2023-03-04T08:55:50;46.73;;;22.17;;
21876;SDS011;11103;43.788;23.710;2023-03-04T08:58:16;33.73;;;20.50;;
21876;SDS011;11103;43.788;23.710;2023-03-04T09:00:44;35.77;;;20.00;;
21876;SDS011;11103;43.788;23.710;2023-03-04T09:03:12;34.57;;;19.13;;
21876;SDS011;11103;43.788;23.710;2023-03-04T09:05:39;40.20;;;20.93;;
21876;SDS011;11103;43.788;23.710;2023-03-04T09:08:04;30.43;;;19.70;;
21876;SDS011;11103;43.788;23.710;2023-03-04T09:10:30;32.83;;;19.83;;
21876;SDS011;11103;43.788;23.710;2023-03-04T09:12:56;33.73;;;19.93;;
21876;SDS011;11103;43.788;23.710;2023-03-04T09:15:22;38.70;;;20.70;;
21876;SDS011;11103;43.788;23.710;2023-03-04T09:17:47;34.07;;;19.70;;
21876;SDS011;11103;43.788;23.710;2023-03-04T09:20:13;37.37;;;18.10;;
21876;SDS011;11103;43.788;23.710;2023-03-04T09:22:38;37.40;;;18.53;;
21876;SDS011;11103;43.788;23.710;2023-03-04T09:25:06;34.03;;;19.47;;
21876;SDS011;11103;43.788;23.710;2023-03-04T09:27:32;34.60;;;19.47;;
21876;SDS011;11103;43.788;23.710;2023-03-04T09:29:57;39.50;;;19.40;;
21876;SDS011;11103;43.788;23.710;2023-03-04T09:32:22;37.90;;;19.17;;
21876;SDS011;11103;43.788;23.710;2023-03-04T09:34:48;38.13;;;20.27;;
21876;SDS011;11103;43.788;23.710;2023-03-04T09:37:13;32.90;;;21.37;;
21876;SDS011;11103;43.788;23.710;2023-03-04T09:39:39;31.67;;;19.67;;
21876;SDS011;11103;43.788;23.710;2023-03-04T09:42:05;37.23;;;21.50;;
21876;SDS011;11103;43.788;23.710;2023-03-04T09:44:33;43.33;;;22.20;;
21876;SDS011;11103;43.788;23.710;2023-03-04T09:47:03;38.77;;;21.93;;
21876;SDS011;11103;43.788;23.710;2023-03-04T09:49:40;37.50;;;21.77;;
21876;SDS011;11103;43.788;23.710;2023-03-04T10:05:18;44.93;;;22.80;;
21876;SDS011;11103;43.788;23.710;2023-03-04T10:07:47;37.50;;;21.77;;
21876;SDS011;11103;43.788;23.710;2023-03-04T10:12:57;34.80;;;22.10;;
21876;SDS011;11103;43.788;23.710;2023-03-04T10:18:13;45.13;;;24.60;;
21876;SDS011;11103;43.788;23.710;2023-03-04T10:23:18;39.13;;;23.30;;
21876;SDS011;11103;43.788;23.710;2023-03-04T10:25:46;39.40;;;22.97;;
21876;SDS011;11103;43.788;23.710;2023-03-04T10:28:19;39.83;;;26.40;;
21876;SDS011;11103;43.788;23.710;2023-03-04T10:33:28;40.47;;;22.30;;
21876;SDS011;11103;43.788;23.710;2023-03-04T10:36:02;33.23;;;22.00;;
21876;SDS011;11103;43.788;23.710;2023-03-04T10:38:38;38.77;;;24.97;;
21876;SDS011;11103;43.788;23.710;2023-03-04T10:46:38;43.33;;;25.57;;
21876;SDS011;11103;43.788;23.710;2023-03-04T10:49:05;43.97;;;25.20;;
21876;SDS011;11103;43.788;23.710;2023-03-04T10:51:31;35.63;;;22.53;;
21876;SDS011;11103;43.788;23.710;2023-03-04T10:54:00;39.97;;;23.37;;
21876;SDS011;11103;43.788;23.710;2023-03-04T10:56:38;36.47;;;23.33;;
21876;SDS011;11103;43.788;23.710;2023-03-04T11:04:39;47.10;;;26.83;;
21876;SDS011;11103;43.788;23.710;2023-03-04T11:07:13;36.83;;;23.20;;
21876;SDS011;11103;43.788;23.710;2023-03-04T11:09:39;62.43;;;32.57;;
21876;SDS011;11103;43.788;23.710;2023-03-04T11:12:09;38.73;;;23.50;;
21876;SDS011;11103;43.788;23.710;2023-03-04T11:14:49;34.23;;;20.17;;
21876;SDS011;11103;43.788;23.710;2023-03-04T11:22:50;43.20;;;22.97;;
21876;SDS011;11103;43.788;23.710;2023-03-04T11:28:02;31.73;;;21.23;;
21876;SDS011;11103;43.788;23.710;2023-03-04T11:30:43;38.70;;;20.93;;
21876;SDS011;11103;43.788;23.710;2023-03-04T11:33:24;28.37;;;18.17;;
21876;SDS011;11103;43.788;23.710;2023-03-04T11:35:56;26.63;;;18.27;;
21876;SDS011;11103;43.788;23.710;2023-03-04T11:38:40;29.80;;;16.93;;
21876;SDS011;11103;43.788;23.710;2023-03-04T11:41:21;26.60;;;17.43;;
21876;SDS011;11103;43.788;23.710;2023-03-04T11:43:49;26.43;;;17.43;;
21876;SDS011;11103;43.788;23.710;2023-03-04T11:46:23;37.30;;;20.33;;
21876;SDS011;11103;43.788;23.710;2023-03-04T11:57:00;28.93;;;17.80;;
21876;SDS011;11103;43.788;23.710;2023-03-04T12:02:43;33.27;;;21.50;;
21876;SDS011;11103;43.788;23.710;2023-03-04T12:05:27;29.70;;;16.67;;
21876;SDS011;11103;43.788;23.710;2023-03-04T12:11:11;36.80;;;22.10;;
21876;SDS011;11103;43.788;23.710;2023-03-04T12:18:49;29.10;;;17.90;;
21876;SDS011;11103;43.788;23.710;2023-03-04T12:22:03;38.10;;;20.33;;
21876;SDS011;11103;43.788;23.710;2023-03-04T12:24:35;38.47;;;20.20;;
21876;SDS011;11103;43.788;23.710;2023-03-04T12:27:23;35.30;;;20.97;;
21876;SDS011;11103;43.788;23.710;2023-03-04T12:30:01;31.00;;;18.83;;
21876;SDS011;11103;43.788;23.710;2023-03-04T12:43:17;48.13;;;27.10;;
21876;SDS011;11103;43.788;23.710;2023-03-04T12:48:41;31.90;;;18.23;;
21876;SDS011;11103;43.788;23.710;2023-03-04T12:51:16;25.90;;;14.03;;
21876;SDS011;11103;43.788;23.710;2023-03-04T12:59:20;26.47;;;15.43;;
21876;SDS011;11103;43.788;23.710;2023-03-04T13:10:17;25.17;;;13.70;;
21876;SDS011;11103;43.788;23.710;2023-03-04T13:12:48;35.10;;;19.87;;
21876;SDS011;11103;43.788;23.710;2023-03-04T13:17:55;23.87;;;13.00;;
21876;SDS011;11103;43.788;23.710;2023-03-04T13:20:40;17.33;;;9.97;;
21876;SDS011;11103;43.788;23.710;2023-03-04T13:25:41;15.90;;;10.40;;
21876;SDS011;11103;43.788;23.710;2023-03-04T13:43:36;16.60;;;11.23;;
21876;SDS011;11103;43.788;23.710;2023-03-04T13:54:20;23.03;;;12.47;;
21876;SDS011;11103;43.788;23.710;2023-03-04T13:59:42;25.87;;;12.77;;
21876;SDS011;11103;43.788;23.710;2023-03-04T14:02:17;18.70;;;11.50;;
21876;SDS011;11103;43.788;23.710;2023-03-04T14:04:55;22.87;;;11.80;;
21876;SDS011;11103;43.788;23.710;2023-03-04T14:10:03;20.27;;;13.03;;
21876;SDS011;11103;43.788;23.710;2023-03-04T14:12:35;25.20;;;14.03;;
21876;SDS011;11103;43.788;23.710;2023-03-04T14:15:15;24.60;;;13.37;;
21876;SDS011;11103;43.788;23.710;2023-03-04T14:17:45;23.90;;;12.17;;
21876;SDS011;11103;43.788;23.710;2023-03-04T14:20:27;24.13;;;12.00;;
21876;SDS011;11103;43.788;23.710;2023-03-04T14:22:58;20.67;;;12.30;;
21876;SDS011;11103;43.788;23.710;2023-03-04T14:25:26;25.27;;;13.23;;
21876;SDS011;11103;43.788;23.710;2023-03-04T14:30:35;31.30;;;19.17;;
21876;SDS011;11103;43.788;23.710;2023-03-04T14:33:01;29.90;;;17.07;;
21876;SDS011;11103;43.788;23.710;2023-03-04T14:35:30;26.57;;;15.83;;
21876;SDS011;11103;43.788;23.710;2023-03-04T14:38:06;24.47;;;14.00;;
21876;SDS011;11103;43.788;23.710;2023-03-04T14:40:41;24.10;;;14.17;;
21876;SDS011;11103;43.788;23.710;2023-03-04T14:43:14;25.03;;;14.67;;
21876;SDS011;11103;43.788;23.710;2023-03-04T14:45:46;21.77;;;13.40;;
21876;SDS011;11103;43.788;23.710;2023-03-04T14:48:17;25.53;;;13.00;;
21876;SDS011;11103;43.788;23.710;2023-03-04T14:50:49;19.90;;;12.90;;
21876;SDS011;11103;43.788;23.710;2023-03-04T14:53:17;20.93;;;12.07;;
21876;SDS011;11103;43.788;23.710;2023-03-04T15:01:37;25.53;;;13.70;;
21876;SDS011;11103;43.788;23.710;2023-03-04T15:06:46;27.00;;;12.10;;
21876;SDS011;11103;43.788;23.710;2023-03-04T15:09:18;23.87;;;12.17;;
21876;SDS011;11103;43.788;23.710;2023-03-04T15:22:30;21.53;;;12.63;;
21876;SDS011;11103;43.788;23.710;2023-03-04T15:24:56;25.03;;;14.10;;
21876;SDS011;11103;43.788;23.710;2023-03-04T15:27:22;24.17;;;13.63;;
21876;SDS011;11103;43.788;23.710;2023-03-04T15:29:49;28.93;;;14.07;;
21876;SDS011;11103;43.788;23.710;2023-03-04T15:32:15;30.60;;;14.13;;
21876;SDS011;11103;43.788;23.710;2023-03-04T15:34:41;23.70;;;13.73;;
21876;SDS011;11103;43.788;23.710;2023-03-04T15:37:07;27.43;;;14.33;;
21876;SDS011;11103;43.788;23.710;2023-03-04T15:39:41;25.23;;;13.10;;
21876;SDS011;11103;43.788;23.710;2023-03-04T15:42:07;35.40;;;14.17;;
21876;SDS011;11103;43.788;23.710;2023-03-04T15:44:37;24.63;;;13.60;;
21876;SDS011;11103;43.788;23.710;2023-03-04T15:47:02;27.93;;;14.40;;
21876;SDS011;11103;43.788;23.710;2023-03-04T15:49:28;29.40;;;14.60;;
21876;SDS011;11103;43.788;23.710;2023-03-04T15:51:54;29.23;;;16.60;;
21876;SDS011;11103;43.788;23.710;2023-03-04T15:54:19;36.17;;;19.07;;
21876;SDS011;11103;43.788;23.710;2023-03-04T15:56:48;29.37;;;14.07;;
21876;SDS011;11103;43.788;23.710;2023-03-04T15:59:14;33.90;;;13.30;;
21876;SDS011;11103;43.788;23.710;2023-03-04T16:01:41;22.70;;;13.47;;
21876;SDS011;11103;43.788;23.710;2023-03-04T16:04:10;24.83;;;13.73;;
21876;SDS011;11103;43.788;23.710;2023-03-04T16:06:40;28.17;;;15.40;;
21876;SDS011;11103;43.788;23.710;2023-03-04T16:09:09;27.40;;;14.07;;
21876;SDS011;11103;43.788;23.710;2023-03-04T16:11:39;29.33;;;13.87;;
21876;SDS011;11103;43.788;23.710;2023-03-04T16:14:11;24.67;;;12.53;;
21876;SDS011;11103;43.788;23.710;2023-03-04T16:16:39;23.37;;;12.83;;
21876;SDS011;11103;43.788;23.710;2023-03-04T16:19:05;22.83;;;12.60;;
21876;SDS011;11103;43.788;23.710;2023-03-04T16:21:31;27.13;;;13.47;;
21876;SDS011;11103;43.788;23.710;2023-03-04T16:23:57;25.37;;;13.47;;
21876;SDS011;11103;43.788;23.710;2023-03-04T16:26:24;30.67;;;13.40;;
21876;SDS011;11103;43.788;23.710;2023-03-04T16:28:50;23.37;;;12.63;;
21876;SDS011;11103;43.788;23.710;2023-03-04T16:31:17;21.93;;;14.20;;
21876;SDS011;11103;43.788;23.710;2023-03-04T16:33:42;27.93;;;16.03;;
21876;SDS011;11103;43.788;23.710;2023-03-04T16:38:44;35.20;;;17.97;;
21876;SDS011;11103;43.788;23.710;2023-03-04T16:41:10;35.83;;;18.37;;
21876;SDS011;11103;43.788;23.710;2023-03-04T16:43:37;37.00;;;18.63;;